sensor_id;sensor_type;location;lat;lon;timestamp;P1;durP1;ratioP1;P2;durP2;ratioP2
68188;SDS011;66299;47.514;19.218;2023-08-08T00:01:31;5.20;;;1.70;;
68188;SDS011;66299;47.514;19.218;2023-08-08T00:06:30;5.72;;;1.55;;
68188;SDS011;66299;47.514;19.218;2023-08-08T00:09:06;3.70;;;1.63;;
68188;SDS011;66299;47.514;19.218;2023-08-08T00:11:36;3.47;;;1.38;;
68188;SDS011;66299;47.514;19.218;2023-08-08T00:14:12;4.28;;;1.60;;
68188;SDS011;66299;47.514;19.218;2023-08-08T00:16:42;6.38;;;1.70;;
68188;SDS011;66299;47.514;19.218;2023-08-08T00:19:16;4.88;;;1.98;;
68188;SDS011;66299;47.514;19.218;2023-08-08T00:21:50;3.90;;;1.50;;
68188;SDS011;66299;47.514;19.218;2023-08-08T00:24:20;4.28;;;1.70;;
68188;SDS011;66299;47.514;19.218;2023-08-08T00:26:51;3.85;;;1.50;;
68188;SDS011;66299;47.514;19.218;2023-08-08T00:29:19;3.70;;;1.60;;
68188;SDS011;66299;47.514;19.218;2023-08-08T00:31:49;6.82;;;1.70;;
68188;SDS011;66299;47.514;19.218;2023-08-08T00:34:21;6.25;;;1.52;;
68188;SDS011;66299;47.514;19.218;2023-08-08T00:36:55;3.55;;;1.50;;
68188;SDS011;66299;47.514;19.218;2023-08-08T00:39:25;5.30;;;1.75;;
68188;SDS011;66299;47.514;19.218;2023-08-08T00:41:57;4.68;;;1.60;;
68188;SDS011;66299;47.514;19.218;2023-08-08T00:44:27;4.13;;;1.60;;
68188;SDS011;66299;47.514;19.218;2023-08-08T00:47:02;4.47;;;1.50;;
68188;SDS011;66299;47.514;19.218;2023-08-08T00:49:31;2.90;;;1.50;;
68188;SDS011;66299;47.514;19.218;2023-08-08T00:52:04;2.88;;;1.45;;
68188;SDS011;66299;47.514;19.218;2023-08-08T00:54:45;4.78;;;1.40;;
68188;SDS011;66299;47.514;19.218;2023-08-08T00:57:14;2.65;;;1.50;;
68188;SDS011;66299;47.514;19.218;2023-08-08T00:59:42;3.65;;;1.50;;
68188;SDS011;66299;47.514;19.218;2023-08-08T01:02:14;4.97;;;1.55;;
68188;SDS011;66299;47.514;19.218;2023-08-08T01:04:45;4.95;;;1.60;;
68188;SDS011;66299;47.514;19.218;2023-08-08T01:07:20;4.07;;;1.50;;
68188;SDS011;66299;47.514;19.218;2023-08-08T01:09:59;4.55;;;1.60;;
68188;SDS011;66299;47.514;19.218;2023-08-08T01:12:39;3.78;;;1.50;;
68188;SDS011;66299;47.514;19.218;2023-08-08T01:15:15;6.03;;;1.50;;
68188;SDS011;66299;47.514;19.218;2023-08-08T01:17:47;3.65;;;1.60;;
68188;SDS011;66299;47.514;19.218;2023-08-08T01:20:25;4.15;;;1.70;;
68188;SDS011;66299;47.514;19.218;2023-08-08T01:22:58;5.32;;;1.70;;
68188;SDS011;66299;47.514;19.218;2023-08-08T01:25:42;4.15;;;1.52;;
68188;SDS011;66299;47.514;19.218;2023-08-08T01:28:13;3.38;;;1.55;;
68188;SDS011;66299;47.514;19.218;2023-08-08T01:30:44;4.78;;;1.80;;
68188;SDS011;66299;47.514;19.218;2023-08-08T01:33:16;4.38;;;1.67;;
68188;SDS011;66299;47.514;19.218;2023-08-08T01:35:48;5.57;;;1.80;;
68188;SDS011;66299;47.514;19.218;2023-08-08T01:38:23;4.32;;;1.70;;
68188;SDS011;66299;47.514;19.218;2023-08-08T01:41:00;6.05;;;1.70;;
68188;SDS011;66299;47.514;19.218;2023-08-08T01:43:29;5.10;;;1.75;;
68188;SDS011;66299;47.514;19.218;2023-08-08T01:46:01;7.03;;;1.80;;
68188;SDS011;66299;47.514;19.218;2023-08-08T01:48:33;4.97;;;1.80;;
68188;SDS011;66299;47.514;19.218;2023-08-08T01:51:07;5.25;;;1.73;;
68188;SDS011;66299;47.514;19.218;2023-08-08T01:53:43;5.85;;;1.80;;
68188;SDS011;66299;47.514;19.218;2023-08-08T01:56:20;4.65;;;1.60;;
68188;SDS011;66299;47.514;19.218;2023-08-08T01:58:48;4.55;;;1.80;;
68188;SDS011;66299;47.514;19.218;2023-08-08T02:01:23;4.00;;;1.70;;
68188;SDS011;66299;47.514;19.218;2023-08-08T02:03:57;5.93;;;1.80;;
68188;SDS011;66299;47.514;19.218;2023-08-08T02:06:26;4.85;;;1.80;;
68188;SDS011;66299;47.514;19.218;2023-08-08T02:08:56;5.13;;;1.80;;
68188;SDS011;66299;47.514;19.218;2023-08-08T02:11:31;5.53;;;1.85;;
68188;SDS011;66299;47.514;19.218;2023-08-08T02:14:01;5.45;;;1.83;;
68188;SDS011;66299;47.514;19.218;2023-08-08T02:16:32;4.80;;;1.80;;
68188;SDS011;66299;47.514;19.218;2023-08-08T02:19:04;5.65;;;1.80;;
68188;SDS011;66299;47.514;19.218;2023-08-08T02:21:33;5.55;;;2.08;;
68188;SDS011;66299;47.514;19.218;2023-08-08T02:24:03;7.93;;;2.15;;
68188;SDS011;66299;47.514;19.218;2023-08-08T02:26:33;7.22;;;1.90;;
68188;SDS011;66299;47.514;19.218;2023-08-08T02:29:07;4.28;;;1.80;;
68188;SDS011;66299;47.514;19.218;2023-08-08T02:31:40;7.38;;;2.10;;
68188;SDS011;66299;47.514;19.218;2023-08-08T02:34:09;9.07;;;2.10;;
68188;SDS011;66299;47.514;19.218;2023-08-08T02:36:42;6.15;;;2.00;;
68188;SDS011;66299;47.514;19.218;2023-08-08T02:39:11;5.38;;;1.90;;
68188;SDS011;66299;47.514;19.218;2023-08-08T02:41:43;6.85;;;2.20;;
68188;SDS011;66299;47.514;19.218;2023-08-08T02:44:12;6.50;;;2.30;;
68188;SDS011;66299;47.514;19.218;2023-08-08T02:46:43;7.45;;;1.90;;
68188;SDS011;66299;47.514;19.218;2023-08-08T02:49:13;8.57;;;2.10;;
68188;SDS011;66299;47.514;19.218;2023-08-08T02:51:43;6.95;;;2.17;;
68188;SDS011;66299;47.514;19.218;2023-08-08T02:54:17;6.47;;;2.28;;
68188;SDS011;66299;47.514;19.218;2023-08-08T02:56:52;5.95;;;2.10;;
68188;SDS011;66299;47.514;19.218;2023-08-08T02:59:21;8.45;;;2.33;;
68188;SDS011;66299;47.514;19.218;2023-08-08T03:01:55;6.05;;;2.20;;
68188;SDS011;66299;47.514;19.218;2023-08-08T03:04:36;6.82;;;2.03;;
68188;SDS011;66299;47.514;19.218;2023-08-08T03:07:09;6.07;;;2.10;;
68188;SDS011;66299;47.514;19.218;2023-08-08T03:09:39;6.38;;;2.10;;
68188;SDS011;66299;47.514;19.218;2023-08-08T03:12:13;10.90;;;2.40;;
68188;SDS011;66299;47.514;19.218;2023-08-08T03:14:43;6.60;;;2.35;;
68188;SDS011;66299;47.514;19.218;2023-08-08T03:17:18;10.02;;;2.30;;
68188;SDS011;66299;47.514;19.218;2023-08-08T03:19:47;8.43;;;2.20;;
68188;SDS011;66299;47.514;19.218;2023-08-08T03:22:15;5.90;;;2.10;;
68188;SDS011;66299;47.514;19.218;2023-08-08T03:24:49;5.68;;;2.00;;
68188;SDS011;66299;47.514;19.218;2023-08-08T03:27:20;6.65;;;2.10;;
68188;SDS011;66299;47.514;19.218;2023-08-08T03:29:51;7.20;;;2.30;;
68188;SDS011;66299;47.514;19.218;2023-08-08T03:32:21;7.22;;;2.38;;
68188;SDS011;66299;47.514;19.218;2023-08-08T03:34:53;8.02;;;2.38;;
68188;SDS011;66299;47.514;19.218;2023-08-08T03:37:23;7.60;;;2.20;;
68188;SDS011;66299;47.514;19.218;2023-08-08T03:39:53;6.03;;;2.20;;
68188;SDS011;66299;47.514;19.218;2023-08-08T03:42:29;9.50;;;2.50;;
68188;SDS011;66299;47.514;19.218;2023-08-08T03:44:58;7.47;;;2.22;;
68188;SDS011;66299;47.514;19.218;2023-08-08T03:47:26;9.23;;;2.30;;
68188;SDS011;66299;47.514;19.218;2023-08-08T03:49:56;8.52;;;2.30;;
68188;SDS011;66299;47.514;19.218;2023-08-08T03:52:26;7.97;;;2.28;;
68188;SDS011;66299;47.514;19.218;2023-08-08T03:57:29;6.68;;;2.20;;
68188;SDS011;66299;47.514;19.218;2023-08-08T04:00:01;6.47;;;2.20;;
68188;SDS011;66299;47.514;19.218;2023-08-08T04:05:07;8.30;;;2.20;;
68188;SDS011;66299;47.514;19.218;2023-08-08T04:07:36;6.53;;;2.13;;
68188;SDS011;66299;47.514;19.218;2023-08-08T04:10:08;8.52;;;2.40;;
68188;SDS011;66299;47.514;19.218;2023-08-08T04:12:41;8.00;;;2.20;;
68188;SDS011;66299;47.514;19.218;2023-08-08T04:15:13;6.95;;;2.30;;
68188;SDS011;66299;47.514;19.218;2023-08-08T04:17:43;7.50;;;2.13;;
68188;SDS011;66299;47.514;19.218;2023-08-08T04:20:16;6.35;;;2.00;;
68188;SDS011;66299;47.514;19.218;2023-08-08T04:22:47;7.80;;;2.25;;
68188;SDS011;66299;47.514;19.218;2023-08-08T04:25:17;5.95;;;2.10;;
68188;SDS011;66299;47.514;19.218;2023-08-08T04:27:49;7.65;;;2.25;;
68188;SDS011;66299;47.514;19.218;2023-08-08T04:30:20;5.97;;;2.10;;
68188;SDS011;66299;47.514;19.218;2023-08-08T04:32:51;6.38;;;2.08;;
68188;SDS011;66299;47.514;19.218;2023-08-08T04:35:23;6.75;;;2.13;;
68188;SDS011;66299;47.514;19.218;2023-08-08T04:37:52;6.95;;;2.15;;
68188;SDS011;66299;47.514;19.218;2023-08-08T04:40:19;7.20;;;2.08;;
68188;SDS011;66299;47.514;19.218;2023-08-08T04:42:53;6.93;;;2.05;;
68188;SDS011;66299;47.514;19.218;2023-08-08T04:45:22;7.05;;;2.03;;
68188;SDS011;66299;47.514;19.218;2023-08-08T04:47:55;6.75;;;2.10;;
68188;SDS011;66299;47.514;19.218;2023-08-08T04:50:24;10.82;;;2.30;;
68188;SDS011;66299;47.514;19.218;2023-08-08T04:52:56;8.88;;;2.10;;
68188;SDS011;66299;47.514;19.218;2023-08-08T04:55:26;8.52;;;1.95;;
68188;SDS011;66299;47.514;19.218;2023-08-08T04:58:02;6.60;;;2.00;;
68188;SDS011;66299;47.514;19.218;2023-08-08T05:00:34;9.18;;;2.10;;
68188;SDS011;66299;47.514;19.218;2023-08-08T05:03:03;7.78;;;2.20;;
68188;SDS011;66299;47.514;19.218;2023-08-08T05:05:37;7.28;;;2.20;;
68188;SDS011;66299;47.514;19.218;2023-08-08T05:08:18;7.72;;;2.10;;
68188;SDS011;66299;47.514;19.218;2023-08-08T05:10:53;7.82;;;2.22;;
68188;SDS011;66299;47.514;19.218;2023-08-08T05:13:26;7.93;;;2.00;;
68188;SDS011;66299;47.514;19.218;2023-08-08T05:15:57;12.45;;;2.00;;
68188;SDS011;66299;47.514;19.218;2023-08-08T05:18:28;6.85;;;2.15;;
68188;SDS011;66299;47.514;19.218;2023-08-08T05:20:56;6.78;;;2.10;;
68188;SDS011;66299;47.514;19.218;2023-08-08T05:23:27;7.65;;;2.10;;
68188;SDS011;66299;47.514;19.218;2023-08-08T05:26:02;6.22;;;2.15;;
68188;SDS011;66299;47.514;19.218;2023-08-08T05:28:38;7.45;;;2.22;;
68188;SDS011;66299;47.514;19.218;2023-08-08T05:31:13;5.75;;;1.90;;
68188;SDS011;66299;47.514;19.218;2023-08-08T05:33:43;8.63;;;2.30;;
68188;SDS011;66299;47.514;19.218;2023-08-08T05:36:13;8.63;;;2.20;;
68188;SDS011;66299;47.514;19.218;2023-08-08T05:38:49;8.52;;;2.80;;
68188;SDS011;66299;47.514;19.218;2023-08-08T05:41:20;6.57;;;1.90;;
68188;SDS011;66299;47.514;19.218;2023-08-08T05:43:53;12.55;;;2.30;;
68188;SDS011;66299;47.514;19.218;2023-08-08T05:46:26;10.63;;;2.92;;
68188;SDS011;66299;47.514;19.218;2023-08-08T05:48:57;7.85;;;1.95;;
68188;SDS011;66299;47.514;19.218;2023-08-08T05:51:31;7.28;;;2.10;;
68188;SDS011;66299;47.514;19.218;2023-08-08T05:54:03;9.45;;;2.35;;
68188;SDS011;66299;47.514;19.218;2023-08-08T05:56:40;6.90;;;2.20;;
68188;SDS011;66299;47.514;19.218;2023-08-08T05:59:12;5.65;;;1.90;;
68188;SDS011;66299;47.514;19.218;2023-08-08T06:01:41;7.15;;;2.08;;
68188;SDS011;66299;47.514;19.218;2023-08-08T06:04:14;7.93;;;2.10;;
68188;SDS011;66299;47.514;19.218;2023-08-08T06:06:43;7.13;;;2.00;;
68188;SDS011;66299;47.514;19.218;2023-08-08T06:09:18;7.28;;;2.05;;
68188;SDS011;66299;47.514;19.218;2023-08-08T06:11:48;6.80;;;2.00;;
68188;SDS011;66299;47.514;19.218;2023-08-08T06:14:19;7.07;;;2.03;;
68188;SDS011;66299;47.514;19.218;2023-08-08T06:16:51;8.90;;;2.20;;
68188;SDS011;66299;47.514;19.218;2023-08-08T06:19:22;8.18;;;2.05;;
68188;SDS011;66299;47.514;19.218;2023-08-08T06:21:51;7.28;;;2.00;;
68188;SDS011;66299;47.514;19.218;2023-08-08T06:24:26;6.55;;;2.00;;
68188;SDS011;66299;47.514;19.218;2023-08-08T06:26:55;9.30;;;2.10;;
68188;SDS011;66299;47.514;19.218;2023-08-08T06:29:27;8.40;;;2.15;;
68188;SDS011;66299;47.514;19.218;2023-08-08T06:31:59;7.40;;;2.15;;
68188;SDS011;66299;47.514;19.218;2023-08-08T06:34:31;8.50;;;2.00;;
68188;SDS011;66299;47.514;19.218;2023-08-08T06:37:11;8.05;;;2.10;;
68188;SDS011;66299;47.514;19.218;2023-08-08T06:39:43;7.22;;;2.20;;
68188;SDS011;66299;47.514;19.218;2023-08-08T06:42:13;8.20;;;2.20;;
68188;SDS011;66299;47.514;19.218;2023-08-08T06:44:51;6.88;;;2.00;;
68188;SDS011;66299;47.514;19.218;2023-08-08T06:47:22;6.07;;;2.10;;
68188;SDS011;66299;47.514;19.218;2023-08-08T06:49:53;6.68;;;2.00;;
68188;SDS011;66299;47.514;19.218;2023-08-08T06:52:28;7.70;;;2.20;;
68188;SDS011;66299;47.514;19.218;2023-08-08T06:55:00;10.27;;;2.10;;
68188;SDS011;66299;47.514;19.218;2023-08-08T06:57:31;9.85;;;2.20;;
68188;SDS011;66299;47.514;19.218;2023-08-08T07:00:09;9.10;;;2.00;;
68188;SDS011;66299;47.514;19.218;2023-08-08T07:02:45;11.30;;;2.40;;
68188;SDS011;66299;47.514;19.218;2023-08-08T07:05:17;6.93;;;2.10;;
68188;SDS011;66299;47.514;19.218;2023-08-08T07:07:50;7.18;;;1.90;;
68188;SDS011;66299;47.514;19.218;2023-08-08T07:10:23;8.20;;;2.38;;
68188;SDS011;66299;47.514;19.218;2023-08-08T07:12:53;7.20;;;2.10;;
68188;SDS011;66299;47.514;19.218;2023-08-08T07:15:25;6.00;;;2.00;;
68188;SDS011;66299;47.514;19.218;2023-08-08T07:17:55;5.63;;;1.95;;
68188;SDS011;66299;47.514;19.218;2023-08-08T07:20:28;6.88;;;2.00;;
68188;SDS011;66299;47.514;19.218;2023-08-08T07:22:58;11.23;;;2.50;;
68188;SDS011;66299;47.514;19.218;2023-08-08T07:25:29;8.48;;;2.03;;
68188;SDS011;66299;47.514;19.218;2023-08-08T07:28:02;6.00;;;2.00;;
68188;SDS011;66299;47.514;19.218;2023-08-08T07:30:38;9.32;;;2.20;;
68188;SDS011;66299;47.514;19.218;2023-08-08T07:33:07;7.68;;;2.30;;
68188;SDS011;66299;47.514;19.218;2023-08-08T07:35:37;5.57;;;2.00;;
68188;SDS011;66299;47.514;19.218;2023-08-08T07:38:12;6.97;;;2.10;;
68188;SDS011;66299;47.514;19.218;2023-08-08T07:40:43;8.48;;;2.20;;
68188;SDS011;66299;47.514;19.218;2023-08-08T07:43:20;6.72;;;1.88;;
68188;SDS011;66299;47.514;19.218;2023-08-08T07:45:57;9.02;;;2.30;;
68188;SDS011;66299;47.514;19.218;2023-08-08T07:48:27;7.47;;;2.20;;
68188;SDS011;66299;47.514;19.218;2023-08-08T07:51:01;6.00;;;1.92;;
68188;SDS011;66299;47.514;19.218;2023-08-08T07:56:02;8.15;;;2.13;;
68188;SDS011;66299;47.514;19.218;2023-08-08T07:58:35;7.57;;;2.20;;
68188;SDS011;66299;47.514;19.218;2023-08-08T08:01:06;7.50;;;2.28;;
68188;SDS011;66299;47.514;19.218;2023-08-08T08:03:38;7.57;;;1.92;;
68188;SDS011;66299;47.514;19.218;2023-08-08T08:06:10;7.45;;;2.10;;
68188;SDS011;66299;47.514;19.218;2023-08-08T08:08:41;12.27;;;2.30;;
68188;SDS011;66299;47.514;19.218;2023-08-08T08:11:12;7.45;;;2.00;;
68188;SDS011;66299;47.514;19.218;2023-08-08T08:13:44;7.20;;;2.20;;
68188;SDS011;66299;47.514;19.218;2023-08-08T08:16:19;11.50;;;2.20;;
68188;SDS011;66299;47.514;19.218;2023-08-08T08:18:52;8.48;;;2.10;;
68188;SDS011;66299;47.514;19.218;2023-08-08T08:21:23;8.07;;;2.15;;
68188;SDS011;66299;47.514;19.218;2023-08-08T08:23:56;9.35;;;2.22;;
68188;SDS011;66299;47.514;19.218;2023-08-08T08:26:29;7.38;;;2.00;;
68188;SDS011;66299;47.514;19.218;2023-08-08T08:28:59;6.72;;;2.10;;
68188;SDS011;66299;47.514;19.218;2023-08-08T08:31:31;8.73;;;2.20;;
68188;SDS011;66299;47.514;19.218;2023-08-08T08:34:06;8.77;;;2.17;;
68188;SDS011;66299;47.514;19.218;2023-08-08T08:36:45;6.95;;;2.20;;
68188;SDS011;66299;47.514;19.218;2023-08-08T08:39:15;6.82;;;2.20;;
68188;SDS011;66299;47.514;19.218;2023-08-08T08:41:48;7.32;;;2.15;;
68188;SDS011;66299;47.514;19.218;2023-08-08T08:44:25;8.10;;;2.22;;
68188;SDS011;66299;47.514;19.218;2023-08-08T08:46:58;7.90;;;2.20;;
68188;SDS011;66299;47.514;19.218;2023-08-08T08:49:31;10.80;;;2.28;;
68188;SDS011;66299;47.514;19.218;2023-08-08T08:52:05;6.55;;;1.90;;
68188;SDS011;66299;47.514;19.218;2023-08-08T08:54:36;8.40;;;2.60;;
68188;SDS011;66299;47.514;19.218;2023-08-08T08:57:07;7.43;;;2.20;;
68188;SDS011;66299;47.514;19.218;2023-08-08T08:59:37;15.07;;;2.67;;
68188;SDS011;66299;47.514;19.218;2023-08-08T09:02:10;8.93;;;2.45;;
68188;SDS011;66299;47.514;19.218;2023-08-08T09:04:40;10.52;;;2.40;;
68188;SDS011;66299;47.514;19.218;2023-08-08T09:07:10;6.60;;;2.08;;
68188;SDS011;66299;47.514;19.218;2023-08-08T09:09:43;7.80;;;2.67;;
68188;SDS011;66299;47.514;19.218;2023-08-08T09:12:15;7.22;;;2.30;;
68188;SDS011;66299;47.514;19.218;2023-08-08T09:14:54;9.13;;;2.20;;
68188;SDS011;66299;47.514;19.218;2023-08-08T09:17:27;12.43;;;2.08;;
68188;SDS011;66299;47.514;19.218;2023-08-08T09:20:02;5.70;;;1.90;;
68188;SDS011;66299;47.514;19.218;2023-08-08T09:22:36;7.18;;;2.22;;
68188;SDS011;66299;47.514;19.218;2023-08-08T09:25:06;9.68;;;2.10;;
68188;SDS011;66299;47.514;19.218;2023-08-08T09:27:38;12.02;;;2.30;;
68188;SDS011;66299;47.514;19.218;2023-08-08T09:30:11;8.85;;;2.10;;
68188;SDS011;66299;47.514;19.218;2023-08-08T09:32:44;8.63;;;2.20;;
68188;SDS011;66299;47.514;19.218;2023-08-08T09:35:14;6.40;;;2.10;;
68188;SDS011;66299;47.514;19.218;2023-08-08T09:37:43;9.18;;;2.05;;
68188;SDS011;66299;47.514;19.218;2023-08-08T09:40:13;6.88;;;2.05;;
68188;SDS011;66299;47.514;19.218;2023-08-08T09:42:46;9.98;;;2.15;;
68188;SDS011;66299;47.514;19.218;2023-08-08T09:45:16;5.88;;;2.00;;
68188;SDS011;66299;47.514;19.218;2023-08-08T09:47:48;6.80;;;2.30;;
68188;SDS011;66299;47.514;19.218;2023-08-08T09:50:22;6.63;;;1.98;;
68188;SDS011;66299;47.514;19.218;2023-08-08T09:52:54;9.27;;;2.45;;
68188;SDS011;66299;47.514;19.218;2023-08-08T09:55:28;7.78;;;2.20;;
68188;SDS011;66299;47.514;19.218;2023-08-08T09:57:58;7.78;;;2.08;;
68188;SDS011;66299;47.514;19.218;2023-08-08T10:00:31;6.80;;;2.00;;
68188;SDS011;66299;47.514;19.218;2023-08-08T10:03:03;7.22;;;2.22;;
68188;SDS011;66299;47.514;19.218;2023-08-08T10:08:11;7.80;;;2.08;;
68188;SDS011;66299;47.514;19.218;2023-08-08T10:10:47;9.38;;;2.22;;
68188;SDS011;66299;47.514;19.218;2023-08-08T10:13:21;5.80;;;1.80;;
68188;SDS011;66299;47.514;19.218;2023-08-08T10:15:54;6.18;;;1.92;;
68188;SDS011;66299;47.514;19.218;2023-08-08T10:18:32;6.97;;;2.13;;
68188;SDS011;66299;47.514;19.218;2023-08-08T10:21:04;7.30;;;2.03;;
68188;SDS011;66299;47.514;19.218;2023-08-08T10:23:39;7.28;;;1.80;;
68188;SDS011;66299;47.514;19.218;2023-08-08T10:26:19;7.22;;;2.00;;
68188;SDS011;66299;47.514;19.218;2023-08-08T10:28:55;5.85;;;2.00;;
68188;SDS011;66299;47.514;19.218;2023-08-08T10:31:32;9.20;;;2.30;;
68188;SDS011;66299;47.514;19.218;2023-08-08T10:34:06;6.22;;;2.10;;
68188;SDS011;66299;47.514;19.218;2023-08-08T10:36:45;7.45;;;2.10;;
68188;SDS011;66299;47.514;19.218;2023-08-08T10:39:22;7.20;;;2.00;;
68188;SDS011;66299;47.514;19.218;2023-08-08T10:41:54;6.28;;;2.03;;
68188;SDS011;66299;47.514;19.218;2023-08-08T10:44:29;7.70;;;1.90;;
68188;SDS011;66299;47.514;19.218;2023-08-08T10:46:59;8.45;;;2.13;;
68188;SDS011;66299;47.514;19.218;2023-08-08T10:49:30;8.60;;;2.03;;
68188;SDS011;66299;47.514;19.218;2023-08-08T10:52:02;6.35;;;2.00;;
68188;SDS011;66299;47.514;19.218;2023-08-08T10:54:32;6.60;;;2.10;;
68188;SDS011;66299;47.514;19.218;2023-08-08T10:57:02;5.82;;;1.73;;
68188;SDS011;66299;47.514;19.218;2023-08-08T10:59:38;6.53;;;2.00;;
68188;SDS011;66299;47.514;19.218;2023-08-08T11:02:10;6.90;;;2.10;;
68188;SDS011;66299;47.514;19.218;2023-08-08T11:04:41;9.07;;;2.00;;
68188;SDS011;66299;47.514;19.218;2023-08-08T11:07:13;5.15;;;1.88;;
68188;SDS011;66299;47.514;19.218;2023-08-08T11:09:55;8.27;;;2.03;;
68188;SDS011;66299;47.514;19.218;2023-08-08T11:12:27;7.90;;;2.30;;
68188;SDS011;66299;47.514;19.218;2023-08-08T11:15:00;5.13;;;1.90;;
